Terminal Aerodrome Forecast
Issued by NWS

Home | Current Version | Previous Version | Text Only | Print | Product List | Glossary On
Versions: 1 2 3 4 5 6 7 8 9 10 11 12 13 14 15 16 17 18 19 20 21 22 23 24 25
000
FTUS41 KPBZ 142300
TAFAGC
TAF
KAGC 142320Z 1500/1524 VRB03KT P6SM SKC
     FM150900 VRB03KT 3SM BR SCT250
      TEMPO 1511/1513 1/4SM FG OVC001
     FM151500 17005KT P6SM SCT250=

USA.gov is the U.S. government's official web portal to all federal, state and local government web resources and services.